sensor_id;sensor_type;location;lat;lon;timestamp;P1;durP1;ratioP1;P2;durP2;ratioP2
4517;SDS011;2271;49.464;11.070;2023-04-06T00:01:48;5.10;;;2.87;;
4517;SDS011;2271;49.464;11.070;2023-04-06T00:04:13;3.03;;;2.73;;
4517;SDS011;2271;49.464;11.070;2023-04-06T00:06:39;7.27;;;3.40;;
4517;SDS011;2271;49.464;11.070;2023-04-06T00:09:05;4.90;;;2.83;;
4517;SDS011;2271;49.464;11.070;2023-04-06T00:11:31;5.47;;;3.27;;
4517;SDS011;2271;49.464;11.070;2023-04-06T00:13:56;5.27;;;2.80;;
4517;SDS011;2271;49.464;11.070;2023-04-06T00:16:22;6.63;;;2.90;;
4517;SDS011;2271;49.464;11.070;2023-04-06T00:18:48;5.13;;;3.57;;
4517;SDS011;2271;49.464;11.070;2023-04-06T00:21:14;4.43;;;2.93;;
4517;SDS011;2271;49.464;11.070;2023-04-06T00:23:40;5.90;;;3.50;;
4517;SDS011;2271;49.464;11.070;2023-04-06T00:26:06;7.47;;;3.20;;
4517;SDS011;2271;49.464;11.070;2023-04-06T00:28:32;5.23;;;3.47;;
4517;SDS011;2271;49.464;11.070;2023-04-06T00:30:58;6.37;;;3.87;;
4517;SDS011;2271;49.464;11.070;2023-04-06T00:33:24;5.23;;;3.07;;
4517;SDS011;2271;49.464;11.070;2023-04-06T00:35:50;4.77;;;3.57;;
4517;SDS011;2271;49.464;11.070;2023-04-06T00:38:16;10.30;;;3.80;;
4517;SDS011;2271;49.464;11.070;2023-04-06T00:40:42;5.83;;;3.60;;
4517;SDS011;2271;49.464;11.070;2023-04-06T00:43:11;5.27;;;3.60;;
4517;SDS011;2271;49.464;11.070;2023-04-06T00:45:40;9.10;;;3.87;;
4517;SDS011;2271;49.464;11.070;2023-04-06T00:48:07;6.60;;;4.13;;
4517;SDS011;2271;49.464;11.070;2023-04-06T00:50:33;5.83;;;3.87;;
4517;SDS011;2271;49.464;11.070;2023-04-06T00:52:59;4.53;;;3.83;;
4517;SDS011;2271;49.464;11.070;2023-04-06T00:55:28;7.37;;;3.70;;
4517;SDS011;2271;49.464;11.070;2023-04-06T00:57:54;3.90;;;3.50;;
4517;SDS011;2271;49.464;11.070;2023-04-06T01:00:22;6.27;;;4.23;;
4517;SDS011;2271;49.464;11.070;2023-04-06T01:02:48;4.37;;;3.43;;
4517;SDS011;2271;49.464;11.070;2023-04-06T01:05:14;7.83;;;3.93;;
4517;SDS011;2271;49.464;11.070;2023-04-06T01:07:40;3.83;;;3.17;;
4517;SDS011;2271;49.464;11.070;2023-04-06T01:10:05;4.40;;;3.30;;
4517;SDS011;2271;49.464;11.070;2023-04-06T01:12:31;7.50;;;4.20;;
4517;SDS011;2271;49.464;11.070;2023-04-06T01:14:57;5.70;;;3.73;;
4517;SDS011;2271;49.464;11.070;2023-04-06T01:17:23;6.77;;;4.03;;
4517;SDS011;2271;49.464;11.070;2023-04-06T01:19:49;5.00;;;3.77;;
4517;SDS011;2271;49.464;11.070;2023-04-06T01:22:16;3.77;;;3.47;;
4517;SDS011;2271;49.464;11.070;2023-04-06T01:24:42;5.47;;;3.43;;
4517;SDS011;2271;49.464;11.070;2023-04-06T01:27:08;6.30;;;3.63;;
4517;SDS011;2271;49.464;11.070;2023-04-06T01:29:33;6.30;;;4.10;;
4517;SDS011;2271;49.464;11.070;2023-04-06T01:31:59;4.57;;;3.73;;
4517;SDS011;2271;49.464;11.070;2023-04-06T01:34:25;5.20;;;4.00;;
4517;SDS011;2271;49.464;11.070;2023-04-06T01:36:51;6.07;;;4.03;;
4517;SDS011;2271;49.464;11.070;2023-04-06T01:39:16;4.73;;;3.70;;
4517;SDS011;2271;49.464;11.070;2023-04-06T01:41:42;4.70;;;3.80;;
4517;SDS011;2271;49.464;11.070;2023-04-06T01:44:08;8.23;;;4.00;;
4517;SDS011;2271;49.464;11.070;2023-04-06T01:46:33;6.63;;;3.90;;
4517;SDS011;2271;49.464;11.070;2023-04-06T01:48:59;4.60;;;3.73;;
4517;SDS011;2271;49.464;11.070;2023-04-06T01:51:25;6.03;;;4.00;;
4517;SDS011;2271;49.464;11.070;2023-04-06T01:53:51;5.50;;;4.07;;
4517;SDS011;2271;49.464;11.070;2023-04-06T01:56:17;7.53;;;4.30;;
4517;SDS011;2271;49.464;11.070;2023-04-06T01:58:43;8.17;;;4.87;;
4517;SDS011;2271;49.464;11.070;2023-04-06T02:01:08;6.57;;;4.13;;
4517;SDS011;2271;49.464;11.070;2023-04-06T02:03:34;5.50;;;4.67;;
4517;SDS011;2271;49.464;11.070;2023-04-06T02:06:00;5.80;;;4.43;;
4517;SDS011;2271;49.464;11.070;2023-04-06T02:08:25;7.90;;;4.90;;
4517;SDS011;2271;49.464;11.070;2023-04-06T02:10:51;10.73;;;5.27;;
4517;SDS011;2271;49.464;11.070;2023-04-06T02:13:17;9.97;;;5.07;;
4517;SDS011;2271;49.464;11.070;2023-04-06T02:15:43;6.87;;;4.83;;
4517;SDS011;2271;49.464;11.070;2023-04-06T02:18:08;7.90;;;5.27;;
4517;SDS011;2271;49.464;11.070;2023-04-06T02:20:35;6.93;;;5.17;;
4517;SDS011;2271;49.464;11.070;2023-04-06T02:23:00;7.37;;;4.87;;
4517;SDS011;2271;49.464;11.070;2023-04-06T02:25:26;8.97;;;4.57;;
4517;SDS011;2271;49.464;11.070;2023-04-06T02:27:51;8.10;;;5.00;;
4517;SDS011;2271;49.464;11.070;2023-04-06T02:30:17;7.27;;;5.27;;
4517;SDS011;2271;49.464;11.070;2023-04-06T02:32:43;6.53;;;4.43;;
4517;SDS011;2271;49.464;11.070;2023-04-06T02:35:08;10.13;;;5.90;;
4517;SDS011;2271;49.464;11.070;2023-04-06T02:37:34;6.60;;;4.73;;
4517;SDS011;2271;49.464;11.070;2023-04-06T02:40:00;8.37;;;5.03;;
4517;SDS011;2271;49.464;11.070;2023-04-06T02:42:25;8.17;;;4.73;;
4517;SDS011;2271;49.464;11.070;2023-04-06T02:44:51;7.30;;;4.90;;
4517;SDS011;2271;49.464;11.070;2023-04-06T02:47:16;4.93;;;4.40;;
4517;SDS011;2271;49.464;11.070;2023-04-06T02:49:42;6.70;;;4.47;;
4517;SDS011;2271;49.464;11.070;2023-04-06T02:52:08;4.57;;;4.17;;
4517;SDS011;2271;49.464;11.070;2023-04-06T02:54:33;10.80;;;4.70;;
4517;SDS011;2271;49.464;11.070;2023-04-06T02:56:59;6.27;;;4.63;;
4517;SDS011;2271;49.464;11.070;2023-04-06T02:59:24;5.77;;;4.70;;
4517;SDS011;2271;49.464;11.070;2023-04-06T03:01:51;5.13;;;4.03;;
4517;SDS011;2271;49.464;11.070;2023-04-06T03:04:16;6.90;;;4.23;;
4517;SDS011;2271;49.464;11.070;2023-04-06T03:06:42;7.30;;;4.43;;
4517;SDS011;2271;49.464;11.070;2023-04-06T03:09:08;7.77;;;4.63;;
4517;SDS011;2271;49.464;11.070;2023-04-06T03:11:33;5.47;;;3.97;;
4517;SDS011;2271;49.464;11.070;2023-04-06T03:13:59;6.50;;;5.00;;
4517;SDS011;2271;49.464;11.070;2023-04-06T03:16:25;5.80;;;4.50;;
4517;SDS011;2271;49.464;11.070;2023-04-06T03:18:50;5.83;;;4.27;;
4517;SDS011;2271;49.464;11.070;2023-04-06T03:21:16;5.93;;;4.37;;
4517;SDS011;2271;49.464;11.070;2023-04-06T03:23:42;5.70;;;4.30;;
4517;SDS011;2271;49.464;11.070;2023-04-06T03:26:08;7.83;;;4.53;;
4517;SDS011;2271;49.464;11.070;2023-04-06T03:28:33;8.20;;;4.37;;
4517;SDS011;2271;49.464;11.070;2023-04-06T03:30:59;4.50;;;3.97;;
4517;SDS011;2271;49.464;11.070;2023-04-06T03:33:25;4.77;;;3.73;;
4517;SDS011;2271;49.464;11.070;2023-04-06T03:35:54;6.57;;;4.43;;
4517;SDS011;2271;49.464;11.070;2023-04-06T03:38:19;5.50;;;3.63;;
4517;SDS011;2271;49.464;11.070;2023-04-06T03:40:45;5.77;;;4.23;;
4517;SDS011;2271;49.464;11.070;2023-04-06T03:43:11;4.30;;;3.90;;
4517;SDS011;2271;49.464;11.070;2023-04-06T03:45:37;4.37;;;3.70;;
4517;SDS011;2271;49.464;11.070;2023-04-06T03:48:03;10.20;;;4.10;;
4517;SDS011;2271;49.464;11.070;2023-04-06T03:50:28;4.67;;;3.50;;
4517;SDS011;2271;49.464;11.070;2023-04-06T03:52:54;5.57;;;3.07;;
4517;SDS011;2271;49.464;11.070;2023-04-06T03:55:20;7.27;;;4.17;;
4517;SDS011;2271;49.464;11.070;2023-04-06T03:57:46;6.53;;;3.67;;
4517;SDS011;2271;49.464;11.070;2023-04-06T04:00:11;4.67;;;3.93;;
4517;SDS011;2271;49.464;11.070;2023-04-06T04:02:38;4.63;;;3.80;;
4517;SDS011;2271;49.464;11.070;2023-04-06T04:05:04;4.63;;;3.57;;
4517;SDS011;2271;49.464;11.070;2023-04-06T04:07:30;7.03;;;3.37;;
4517;SDS011;2271;49.464;11.070;2023-04-06T04:09:55;4.93;;;3.20;;
4517;SDS011;2271;49.464;11.070;2023-04-06T04:12:21;4.13;;;3.30;;
4517;SDS011;2271;49.464;11.070;2023-04-06T04:14:47;4.90;;;3.60;;
4517;SDS011;2271;49.464;11.070;2023-04-06T04:17:12;8.17;;;3.83;;
4517;SDS011;2271;49.464;11.070;2023-04-06T04:19:38;5.80;;;3.47;;
4517;SDS011;2271;49.464;11.070;2023-04-06T04:22:03;3.70;;;2.90;;
4517;SDS011;2271;49.464;11.070;2023-04-06T04:24:30;6.57;;;3.30;;
4517;SDS011;2271;49.464;11.070;2023-04-06T04:26:56;4.40;;;3.10;;
4517;SDS011;2271;49.464;11.070;2023-04-06T04:29:21;4.77;;;3.27;;
4517;SDS011;2271;49.464;11.070;2023-04-06T04:31:48;4.77;;;2.73;;
4517;SDS011;2271;49.464;11.070;2023-04-06T04:34:14;4.50;;;3.43;;
4517;SDS011;2271;49.464;11.070;2023-04-06T04:36:40;3.83;;;2.90;;
4517;SDS011;2271;49.464;11.070;2023-04-06T04:39:07;4.47;;;3.20;;
4517;SDS011;2271;49.464;11.070;2023-04-06T04:41:33;8.30;;;3.20;;
4517;SDS011;2271;49.464;11.070;2023-04-06T04:43:58;5.37;;;3.33;;
4517;SDS011;2271;49.464;11.070;2023-04-06T04:46:24;8.13;;;3.30;;
4517;SDS011;2271;49.464;11.070;2023-04-06T04:48:50;7.33;;;3.57;;
4517;SDS011;2271;49.464;11.070;2023-04-06T04:51:16;3.73;;;3.10;;
4517;SDS011;2271;49.464;11.070;2023-04-06T04:53:41;6.93;;;3.80;;
4517;SDS011;2271;49.464;11.070;2023-04-06T04:56:07;5.90;;;3.73;;
4517;SDS011;2271;49.464;11.070;2023-04-06T04:58:32;5.03;;;3.43;;
4517;SDS011;2271;49.464;11.070;2023-04-06T05:00:58;5.03;;;3.23;;
4517;SDS011;2271;49.464;11.070;2023-04-06T05:03:24;6.07;;;3.37;;
4517;SDS011;2271;49.464;11.070;2023-04-06T05:05:51;5.30;;;3.33;;
4517;SDS011;2271;49.464;11.070;2023-04-06T05:08:17;5.30;;;3.10;;
4517;SDS011;2271;49.464;11.070;2023-04-06T05:10:43;4.37;;;3.27;;
4517;SDS011;2271;49.464;11.070;2023-04-06T05:13:09;7.37;;;3.83;;
4517;SDS011;2271;49.464;11.070;2023-04-06T05:15:35;5.87;;;3.60;;
4517;SDS011;2271;49.464;11.070;2023-04-06T05:18:03;5.83;;;3.83;;
4517;SDS011;2271;49.464;11.070;2023-04-06T05:20:29;4.53;;;3.57;;
4517;SDS011;2271;49.464;11.070;2023-04-06T05:22:55;5.87;;;3.60;;
4517;SDS011;2271;49.464;11.070;2023-04-06T05:25:21;6.67;;;3.50;;
4517;SDS011;2271;49.464;11.070;2023-04-06T05:27:47;3.97;;;3.20;;
4517;SDS011;2271;49.464;11.070;2023-04-06T05:30:12;8.53;;;3.47;;
4517;SDS011;2271;49.464;11.070;2023-04-06T05:32:38;5.33;;;3.13;;
4517;SDS011;2271;49.464;11.070;2023-04-06T05:35:04;3.80;;;3.27;;
4517;SDS011;2271;49.464;11.070;2023-04-06T05:37:30;5.93;;;3.20;;
4517;SDS011;2271;49.464;11.070;2023-04-06T05:39:56;6.20;;;3.43;;
4517;SDS011;2271;49.464;11.070;2023-04-06T05:42:22;6.70;;;3.63;;
4517;SDS011;2271;49.464;11.070;2023-04-06T05:44:48;7.80;;;3.70;;
4517;SDS011;2271;49.464;11.070;2023-04-06T05:47:14;4.57;;;3.37;;
4517;SDS011;2271;49.464;11.070;2023-04-06T05:49:41;4.43;;;3.20;;
4517;SDS011;2271;49.464;11.070;2023-04-06T05:52:08;6.20;;;3.83;;
4517;SDS011;2271;49.464;11.070;2023-04-06T05:54:35;5.60;;;4.07;;
4517;SDS011;2271;49.464;11.070;2023-04-06T05:57:03;8.07;;;3.47;;
4517;SDS011;2271;49.464;11.070;2023-04-06T05:59:32;6.18;;;3.35;;
4517;SDS011;2271;49.464;11.070;2023-04-06T06:01:57;8.10;;;3.55;;
4517;SDS011;2271;49.464;11.070;2023-04-06T06:04:23;8.55;;;3.90;;
4517;SDS011;2271;49.464;11.070;2023-04-06T06:06:49;7.15;;;3.58;;
4517;SDS011;2271;49.464;11.070;2023-04-06T06:09:14;6.13;;;3.23;;
4517;SDS011;2271;49.464;11.070;2023-04-06T06:11:40;6.15;;;3.85;;
4517;SDS011;2271;49.464;11.070;2023-04-06T06:14:06;4.35;;;3.38;;
4517;SDS011;2271;49.464;11.070;2023-04-06T06:16:32;7.50;;;3.20;;
4517;SDS011;2271;49.464;11.070;2023-04-06T06:18:58;7.45;;;3.45;;
4517;SDS011;2271;49.464;11.070;2023-04-06T06:21:24;5.78;;;3.65;;
4517;SDS011;2271;49.464;11.070;2023-04-06T06:23:50;5.82;;;3.60;;
4517;SDS011;2271;49.464;11.070;2023-04-06T06:26:16;7.13;;;3.80;;
4517;SDS011;2271;49.464;11.070;2023-04-06T06:28:42;4.47;;;3.33;;
4517;SDS011;2271;49.464;11.070;2023-04-06T06:31:08;6.57;;;3.37;;
4517;SDS011;2271;49.464;11.070;2023-04-06T06:33:33;7.07;;;3.90;;
4517;SDS011;2271;49.464;11.070;2023-04-06T06:35:59;6.13;;;4.00;;
4517;SDS011;2271;49.464;11.070;2023-04-06T06:38:25;5.03;;;3.67;;
4517;SDS011;2271;49.464;11.070;2023-04-06T06:40:51;7.27;;;3.83;;
4517;SDS011;2271;49.464;11.070;2023-04-06T06:43:17;11.53;;;3.83;;
4517;SDS011;2271;49.464;11.070;2023-04-06T06:45:43;9.07;;;4.13;;
4517;SDS011;2271;49.464;11.070;2023-04-06T06:48:09;4.97;;;3.60;;
4517;SDS011;2271;49.464;11.070;2023-04-06T06:50:35;5.50;;;3.23;;
4517;SDS011;2271;49.464;11.070;2023-04-06T06:53:01;5.50;;;3.00;;
4517;SDS011;2271;49.464;11.070;2023-04-06T06:55:27;8.00;;;4.03;;
4517;SDS011;2271;49.464;11.070;2023-04-06T06:57:53;11.17;;;3.90;;
4517;SDS011;2271;49.464;11.070;2023-04-06T07:00:18;5.70;;;4.50;;
4517;SDS011;2271;49.464;11.070;2023-04-06T07:02:46;9.07;;;4.23;;
4517;SDS011;2271;49.464;11.070;2023-04-06T07:05:12;6.77;;;4.03;;
4517;SDS011;2271;49.464;11.070;2023-04-06T07:07:38;8.33;;;4.37;;
4517;SDS011;2271;49.464;11.070;2023-04-06T07:10:04;6.77;;;3.63;;
4517;SDS011;2271;49.464;11.070;2023-04-06T07:12:30;9.37;;;4.43;;
4517;SDS011;2271;49.464;11.070;2023-04-06T07:14:56;5.93;;;4.30;;
4517;SDS011;2271;49.464;11.070;2023-04-06T07:17:21;10.73;;;4.60;;
4517;SDS011;2271;49.464;11.070;2023-04-06T07:19:47;6.60;;;4.90;;
4517;SDS011;2271;49.464;11.070;2023-04-06T07:22:13;5.27;;;4.13;;
4517;SDS011;2271;49.464;11.070;2023-04-06T07:24:38;5.83;;;3.93;;
4517;SDS011;2271;49.464;11.070;2023-04-06T07:27:04;6.37;;;4.17;;
4517;SDS011;2271;49.464;11.070;2023-04-06T07:29:30;7.23;;;4.50;;
4517;SDS011;2271;49.464;11.070;2023-04-06T07:31:56;6.07;;;4.13;;
4517;SDS011;2271;49.464;11.070;2023-04-06T07:34:22;8.73;;;4.00;;
4517;SDS011;2271;49.464;11.070;2023-04-06T07:36:48;6.47;;;4.77;;
4517;SDS011;2271;49.464;11.070;2023-04-06T07:39:13;14.30;;;4.13;;
4517;SDS011;2271;49.464;11.070;2023-04-06T07:41:39;15.00;;;5.20;;
4517;SDS011;2271;49.464;11.070;2023-04-06T07:44:05;9.23;;;4.57;;
4517;SDS011;2271;49.464;11.070;2023-04-06T07:46:31;15.90;;;4.97;;
4517;SDS011;2271;49.464;11.070;2023-04-06T07:48:57;6.73;;;4.60;;
4517;SDS011;2271;49.464;11.070;2023-04-06T07:51:24;5.67;;;4.57;;
4517;SDS011;2271;49.464;11.070;2023-04-06T07:53:50;8.70;;;4.70;;
4517;SDS011;2271;49.464;11.070;2023-04-06T07:56:16;9.07;;;5.07;;
4517;SDS011;2271;49.464;11.070;2023-04-06T07:58:42;12.80;;;4.83;;
4517;SDS011;2271;49.464;11.070;2023-04-06T08:01:08;9.43;;;5.30;;
4517;SDS011;2271;49.464;11.070;2023-04-06T08:03:34;10.47;;;4.93;;
4517;SDS011;2271;49.464;11.070;2023-04-06T08:06:00;8.33;;;5.57;;
4517;SDS011;2271;49.464;11.070;2023-04-06T08:08:27;8.03;;;5.00;;
4517;SDS011;2271;49.464;11.070;2023-04-06T08:10:53;9.57;;;5.00;;
4517;SDS011;2271;49.464;11.070;2023-04-06T08:13:18;8.10;;;4.43;;
4517;SDS011;2271;49.464;11.070;2023-04-06T08:15:44;9.20;;;4.77;;
4517;SDS011;2271;49.464;11.070;2023-04-06T08:18:10;6.53;;;4.67;;
4517;SDS011;2271;49.464;11.070;2023-04-06T08:20:36;10.13;;;5.47;;
4517;SDS011;2271;49.464;11.070;2023-04-06T08:23:01;9.80;;;5.27;;
4517;SDS011;2271;49.464;11.070;2023-04-06T08:25:27;9.47;;;5.60;;
4517;SDS011;2271;49.464;11.070;2023-04-06T08:27:53;7.00;;;5.40;;
4517;SDS011;2271;49.464;11.070;2023-04-06T08:30:19;7.63;;;4.90;;
4517;SDS011;2271;49.464;11.070;2023-04-06T08:32:45;9.00;;;5.45;;
4517;SDS011;2271;49.464;11.070;2023-04-06T08:35:11;7.32;;;5.28;;
4517;SDS011;2271;49.464;11.070;2023-04-06T08:37:37;14.57;;;4.97;;
4517;SDS011;2271;49.464;11.070;2023-04-06T08:40:03;8.73;;;5.15;;
4517;SDS011;2271;49.464;11.070;2023-04-06T08:42:31;10.15;;;5.10;;
4517;SDS011;2271;49.464;11.070;2023-04-06T08:44:58;9.38;;;6.07;;
4517;SDS011;2271;49.464;11.070;2023-04-06T08:47:25;8.43;;;5.45;;
4517;SDS011;2271;49.464;11.070;2023-04-06T08:49:51;8.60;;;6.00;;
4517;SDS011;2271;49.464;11.070;2023-04-06T08:52:17;7.40;;;4.50;;
4517;SDS011;2271;49.464;11.070;2023-04-06T08:54:44;8.05;;;4.93;;
4517;SDS011;2271;49.464;11.070;2023-04-06T08:57:09;11.07;;;5.68;;
4517;SDS011;2271;49.464;11.070;2023-04-06T08:59:36;5.95;;;4.82;;
4517;SDS011;2271;49.464;11.070;2023-04-06T09:02:03;11.43;;;5.88;;
4517;SDS011;2271;49.464;11.070;2023-04-06T09:04:30;8.23;;;4.53;;
4517;SDS011;2271;49.464;11.070;2023-04-06T09:07:00;6.40;;;5.20;;
4517;SDS011;2271;49.464;11.070;2023-04-06T09:09:26;10.80;;;5.57;;
4517;SDS011;2271;49.464;11.070;2023-04-06T09:11:52;9.40;;;4.90;;
4517;SDS011;2271;49.464;11.070;2023-04-06T09:14:33;10.80;;;5.70;;
4517;SDS011;2271;49.464;11.070;2023-04-06T09:17:03;7.28;;;5.18;;
4517;SDS011;2271;49.464;11.070;2023-04-06T09:19:29;9.40;;;5.18;;
4517;SDS011;2271;49.464;11.070;2023-04-06T09:22:02;7.60;;;5.15;;
4517;SDS011;2271;49.464;11.070;2023-04-06T09:24:38;5.97;;;5.07;;
4517;SDS011;2271;49.464;11.070;2023-04-06T09:27:05;7.78;;;4.85;;
4517;SDS011;2271;49.464;11.070;2023-04-06T09:29:31;7.05;;;4.47;;
4517;SDS011;2271;49.464;11.070;2023-04-06T09:32:04;8.02;;;4.82;;
4517;SDS011;2271;49.464;11.070;2023-04-06T09:34:36;8.43;;;4.78;;
4517;SDS011;2271;49.464;11.070;2023-04-06T09:37:12;6.63;;;5.05;;
4517;SDS011;2271;49.464;11.070;2023-04-06T09:39:42;7.88;;;5.53;;
4517;SDS011;2271;49.464;11.070;2023-04-06T09:42:09;11.43;;;5.28;;
4517;SDS011;2271;49.464;11.070;2023-04-06T09:44:34;6.95;;;5.32;;
4517;SDS011;2271;49.464;11.070;2023-04-06T09:47:00;8.73;;;5.53;;
4517;SDS011;2271;49.464;11.070;2023-04-06T09:49:27;7.78;;;5.60;;
4517;SDS011;2271;49.464;11.070;2023-04-06T09:52:00;7.07;;;5.57;;
4517;SDS011;2271;49.464;11.070;2023-04-06T09:54:31;7.50;;;5.45;;
4517;SDS011;2271;49.464;11.070;2023-04-06T09:59:38;8.10;;;6.03;;
4517;SDS011;2271;49.464;11.070;2023-04-06T10:05:08;5.90;;;4.80;;
4517;SDS011;2271;49.464;11.070;2023-04-06T10:07:39;13.93;;;6.07;;
4517;SDS011;2271;49.464;11.070;2023-04-06T10:10:06;8.68;;;5.85;;
4517;SDS011;2271;49.464;11.070;2023-04-06T10:12:33;7.72;;;5.78;;
4517;SDS011;2271;49.464;11.070;2023-04-06T10:14:59;8.52;;;5.90;;
4517;SDS011;2271;49.464;11.070;2023-04-06T10:17:25;7.43;;;5.88;;
4517;SDS011;2271;49.464;11.070;2023-04-06T10:20:09;6.30;;;5.43;;
4517;SDS011;2271;49.464;11.070;2023-04-06T10:23:39;8.70;;;5.53;;
4517;SDS011;2271;49.464;11.070;2023-04-06T10:26:12;9.65;;;5.35;;
4517;SDS011;2271;49.464;11.070;2023-04-06T10:28:41;8.07;;;5.90;;
4517;SDS011;2271;49.464;11.070;2023-04-06T10:31:08;7.20;;;5.35;;
4517;SDS011;2271;49.464;11.070;2023-04-06T10:33:34;7.88;;;5.10;;
4517;SDS011;2271;49.464;11.070;2023-04-06T10:36:12;8.85;;;5.28;;
4517;SDS011;2271;49.464;11.070;2023-04-06T10:38:39;5.13;;;4.07;;
4517;SDS011;2271;49.464;11.070;2023-04-06T10:41:06;5.85;;;5.18;;
4517;SDS011;2271;49.464;11.070;2023-04-06T10:43:34;8.27;;;5.68;;
4517;SDS011;2271;49.464;11.070;2023-04-06T10:46:01;6.43;;;5.50;;
4517;SDS011;2271;49.464;11.070;2023-04-06T10:51:06;7.82;;;5.53;;
4517;SDS011;2271;49.464;11.070;2023-04-06T10:53:35;6.40;;;4.78;;
4517;SDS011;2271;49.464;11.070;2023-04-06T10:56:01;9.30;;;6.63;;
4517;SDS011;2271;49.464;11.070;2023-04-06T10:58:29;7.35;;;5.18;;
4517;SDS011;2271;49.464;11.070;2023-04-06T11:00:55;7.70;;;5.30;;
4517;SDS011;2271;49.464;11.070;2023-04-06T11:03:21;6.60;;;5.65;;
4517;SDS011;2271;49.464;11.070;2023-04-06T11:05:48;6.68;;;5.25;;
4517;SDS011;2271;49.464;11.070;2023-04-06T11:08:36;6.63;;;5.20;;
4517;SDS011;2271;49.464;11.070;2023-04-06T11:11:06;13.80;;;5.80;;
4517;SDS011;2271;49.464;11.070;2023-04-06T11:13:48;5.80;;;5.20;;
4517;SDS011;2271;49.464;11.070;2023-04-06T11:16:15;7.53;;;5.28;;
4517;SDS011;2271;49.464;11.070;2023-04-06T11:18:52;8.23;;;5.20;;
4517;SDS011;2271;49.464;11.070;2023-04-06T11:21:40;7.43;;;4.93;;
4517;SDS011;2271;49.464;11.070;2023-04-06T11:24:12;5.47;;;4.78;;
4517;SDS011;2271;49.464;11.070;2023-04-06T11:29:17;6.88;;;5.15;;
4517;SDS011;2271;49.464;11.070;2023-04-06T11:31:47;7.88;;;5.13;;
4517;SDS011;2271;49.464;11.070;2023-04-06T11:34:18;5.25;;;4.25;;
4517;SDS011;2271;49.464;11.070;2023-04-06T11:36:45;5.90;;;4.72;;
4517;SDS011;2271;49.464;11.070;2023-04-06T11:39:12;8.43;;;5.00;;
4517;SDS011;2271;49.464;11.070;2023-04-06T11:41:42;7.38;;;5.05;;
4517;SDS011;2271;49.464;11.070;2023-04-06T11:44:26;5.90;;;3.97;;
4517;SDS011;2271;49.464;11.070;2023-04-06T11:47:04;6.53;;;4.80;;
4517;SDS011;2271;49.464;11.070;2023-04-06T11:49:38;4.90;;;4.40;;
4517;SDS011;2271;49.464;11.070;2023-04-06T11:52:15;5.00;;;4.13;;
4517;SDS011;2271;49.464;11.070;2023-04-06T11:54:47;7.07;;;4.30;;
4517;SDS011;2271;49.464;11.070;2023-04-06T11:57:15;4.40;;;4.00;;
4517;SDS011;2271;49.464;11.070;2023-04-06T11:59:41;7.70;;;4.40;;
4517;SDS011;2271;49.464;11.070;2023-04-06T12:02:07;6.35;;;4.40;;
4517;SDS011;2271;49.464;11.070;2023-04-06T12:04:33;5.82;;;4.43;;
4517;SDS011;2271;49.464;11.070;2023-04-06T12:06:59;6.93;;;4.93;;
4517;SDS011;2271;49.464;11.070;2023-04-06T12:09:26;5.63;;;4.38;;
4517;SDS011;2271;49.464;11.070;2023-04-06T12:11:51;6.50;;;4.65;;
4517;SDS011;2271;49.464;11.070;2023-04-06T12:14:17;6.95;;;4.72;;
4517;SDS011;2271;49.464;11.070;2023-04-06T12:16:43;6.30;;;4.13;;
4517;SDS011;2271;49.464;11.070;2023-04-06T12:19:08;8.98;;;5.88;;
4517;SDS011;2271;49.464;11.070;2023-04-06T12:21:34;6.05;;;4.53;;
4517;SDS011;2271;49.464;11.070;2023-04-06T12:24:02;5.53;;;4.63;;
4517;SDS011;2271;49.464;11.070;2023-04-06T12:26:29;5.30;;;4.15;;
4517;SDS011;2271;49.464;11.070;2023-04-06T12:28:55;5.18;;;4.43;;
4517;SDS011;2271;49.464;11.070;2023-04-06T12:31:22;6.28;;;4.50;;
4517;SDS011;2271;49.464;11.070;2023-04-06T12:33:50;6.35;;;3.92;;
4517;SDS011;2271;49.464;11.070;2023-04-06T12:36:17;6.40;;;4.45;;
4517;SDS011;2271;49.464;11.070;2023-04-06T12:38:44;5.18;;;4.30;;
4517;SDS011;2271;49.464;11.070;2023-04-06T12:41:13;5.25;;;4.07;;
4517;SDS011;2271;49.464;11.070;2023-04-06T12:43:40;6.28;;;5.05;;
4517;SDS011;2271;49.464;11.070;2023-04-06T12:46:06;5.90;;;4.75;;
4517;SDS011;2271;49.464;11.070;2023-04-06T12:48:32;5.65;;;5.00;;
4517;SDS011;2271;49.464;11.070;2023-04-06T12:50:59;5.45;;;4.38;;
4517;SDS011;2271;49.464;11.070;2023-04-06T12:53:25;8.00;;;4.97;;
4517;SDS011;2271;49.464;11.070;2023-04-06T12:55:52;7.20;;;4.65;;
4517;SDS011;2271;49.464;11.070;2023-04-06T12:58:19;6.10;;;4.70;;
4517;SDS011;2271;49.464;11.070;2023-04-06T13:00:45;5.43;;;4.93;;
4517;SDS011;2271;49.464;11.070;2023-04-06T13:03:12;5.63;;;3.90;;
4517;SDS011;2271;49.464;11.070;2023-04-06T13:05:43;7.13;;;5.50;;
4517;SDS011;2271;49.464;11.070;2023-04-06T13:08:09;6.50;;;4.72;;
4517;SDS011;2271;49.464;11.070;2023-04-06T13:10:35;5.65;;;4.82;;
4517;SDS011;2271;49.464;11.070;2023-04-06T13:13:01;5.00;;;4.10;;
4517;SDS011;2271;49.464;11.070;2023-04-06T13:15:27;5.22;;;4.20;;
4517;SDS011;2271;49.464;11.070;2023-04-06T13:17:53;6.35;;;4.57;;
4517;SDS011;2271;49.464;11.070;2023-04-06T13:20:19;6.70;;;4.90;;
4517;SDS011;2271;49.464;11.070;2023-04-06T13:22:45;5.57;;;4.32;;
4517;SDS011;2271;49.464;11.070;2023-04-06T13:25:10;9.82;;;6.03;;
4517;SDS011;2271;49.464;11.070;2023-04-06T13:27:36;4.95;;;4.20;;
4517;SDS011;2271;49.464;11.070;2023-04-06T13:30:02;6.68;;;4.53;;
4517;SDS011;2271;49.464;11.070;2023-04-06T13:32:28;7.32;;;4.68;;
4517;SDS011;2271;49.464;11.070;2023-04-06T13:34:55;6.80;;;4.95;;
4517;SDS011;2271;49.464;11.070;2023-04-06T13:37:21;4.20;;;3.80;;
4517;SDS011;2271;49.464;11.070;2023-04-06T13:39:46;6.13;;;4.10;;
4517;SDS011;2271;49.464;11.070;2023-04-06T13:42:12;5.28;;;4.03;;
4517;SDS011;2271;49.464;11.070;2023-04-06T13:44:38;213.52;;;142.02;;
4517;SDS011;2271;49.464;11.070;2023-04-06T13:47:03;644.38;;;443.20;;
4517;SDS011;2271;49.464;11.070;2023-04-06T13:49:29;455.38;;;301.08;;
4517;SDS011;2271;49.464;11.070;2023-04-06T13:51:55;241.13;;;190.60;;
4517;SDS011;2271;49.464;11.070;2023-04-06T13:54:21;375.88;;;237.20;;
4517;SDS011;2271;49.464;11.070;2023-04-06T13:56:46;377.80;;;140.30;;
4517;SDS011;2271;49.464;11.070;2023-04-06T13:59:12;608.30;;;450.90;;
4517;SDS011;2271;49.464;11.070;2023-04-06T14:01:37;418.35;;;261.13;;
4517;SDS011;2271;49.464;11.070;2023-04-06T14:04:03;553.22;;;321.30;;
4517;SDS011;2271;49.464;11.070;2023-04-06T14:06:29;392.48;;;226.73;;
4517;SDS011;2271;49.464;11.070;2023-04-06T14:08:54;468.88;;;275.38;;
4517;SDS011;2271;49.464;11.070;2023-04-06T14:11:20;217.77;;;126.32;;
4517;SDS011;2271;49.464;11.070;2023-04-06T14:13:46;471.10;;;336.20;;
4517;SDS011;2271;49.464;11.070;2023-04-06T14:16:11;616.85;;;327.13;;
4517;SDS011;2271;49.464;11.070;2023-04-06T14:18:37;431.00;;;252.43;;
4517;SDS011;2271;49.464;11.070;2023-04-06T14:21:03;84.57;;;50.17;;
4517;SDS011;2271;49.464;11.070;2023-04-06T14:23:29;36.47;;;18.27;;
4517;SDS011;2271;49.464;11.070;2023-04-06T14:26:03;45.58;;;35.08;;
4517;SDS011;2271;49.464;11.070;2023-04-06T14:28:30;108.57;;;53.53;;
4517;SDS011;2271;49.464;11.070;2023-04-06T14:30:58;617.60;;;354.60;;
4517;SDS011;2271;49.464;11.070;2023-04-06T14:33:25;184.80;;;96.25;;
4517;SDS011;2271;49.464;11.070;2023-04-06T14:35:51;620.17;;;401.90;;
4517;SDS011;2271;49.464;11.070;2023-04-06T14:38:17;291.00;;;138.45;;
4517;SDS011;2271;49.464;11.070;2023-04-06T14:40:42;432.85;;;217.02;;
4517;SDS011;2271;49.464;11.070;2023-04-06T14:43:08;344.83;;;177.88;;
4517;SDS011;2271;49.464;11.070;2023-04-06T14:45:34;493.67;;;247.18;;
4517;SDS011;2271;49.464;11.070;2023-04-06T14:48:01;245.18;;;151.93;;
4517;SDS011;2271;49.464;11.070;2023-04-06T14:50:27;751.72;;;466.77;;
4517;SDS011;2271;49.464;11.070;2023-04-06T14:52:53;632.55;;;424.27;;
4517;SDS011;2271;49.464;11.070;2023-04-06T14:55:18;348.88;;;256.23;;
4517;SDS011;2271;49.464;11.070;2023-04-06T14:57:44;542.80;;;435.25;;
4517;SDS011;2271;49.464;11.070;2023-04-06T15:00:10;298.75;;;187.60;;
4517;SDS011;2271;49.464;11.070;2023-04-06T15:02:36;59.97;;;39.33;;
4517;SDS011;2271;49.464;11.070;2023-04-06T15:05:03;13.93;;;10.60;;